SBD1473 KPHX-KSAT
Flight info
| Callsign | SBD1473 |
|---|---|
| Flight time | N/A |
| Altitude | 37000 |
| Route | ECLPS1 PHASE ELP FST MOPPP DNKIN1 |
| Aircraft | B738/M-SDE2E3FGHIRWXY/LB1 |
Departure
| Time | N/A |
|---|---|
| Airport | Phoenix Sky Harbor International Airport (KPHX) |
Arrival
| Time | 2026-04-27 10:44 |
|---|---|
| Airport | San Antonio International Airport (KSAT) |
| Time | Latitude | Longitude | Altitude | Speed | Heading |
|---|---|---|---|---|---|
| 2026-04-27 09:29 | 32.42084 | -109.64628 | 37034 ft | 565 kts | 104° |
| 2026-04-27 09:29 | 32.41021 | -109.55392 | 37032 ft | 563 kts | 103° |
| 2026-04-27 09:30 | 32.39968 | -109.46124 | 37024 ft | 564 kts | 104° |
| 2026-04-27 09:30 | 32.38867 | -109.36992 | 37025 ft | 564 kts | 104° |
| 2026-04-27 09:31 | 32.37700 | -109.27793 | 37030 ft | 562 kts | 105° |
| 2026-04-27 09:31 | 32.36506 | -109.18649 | 37031 ft | 563 kts | 105° |
| 2026-04-27 09:32 | 32.35210 | -109.09543 | 37038 ft | 562 kts | 107° |
| 2026-04-27 09:32 | 32.33606 | -109.00527 | 37038 ft | 560 kts | 109° |
| 2026-04-27 09:33 | 32.31918 | -108.91611 | 37041 ft | 560 kts | 109° |
| 2026-04-27 09:33 | 32.30232 | -108.82648 | 37040 ft | 560 kts | 109° |
| 2026-04-27 09:34 | 32.28579 | -108.73682 | 37021 ft | 559 kts | 109° |
| 2026-04-27 09:34 | 32.26949 | -108.64709 | 37019 ft | 558 kts | 109° |
| 2026-04-27 09:35 | 32.25320 | -108.55750 | 37033 ft | 557 kts | 109° |
| 2026-04-27 09:35 | 32.23697 | -108.46851 | 37045 ft | 557 kts | 108° |
| 2026-04-27 09:36 | 32.22056 | -108.37895 | 37047 ft | 557 kts | 108° |
| 2026-04-27 09:36 | 32.20416 | -108.28998 | 37043 ft | 554 kts | 109° |
| 2026-04-27 09:37 | 32.18779 | -108.20158 | 37041 ft | 555 kts | 109° |
| 2026-04-27 09:37 | 32.17120 | -108.11248 | 37037 ft | 553 kts | 109° |
| 2026-04-27 09:38 | 32.15460 | -108.02351 | 37041 ft | 554 kts | 109° |
| 2026-04-27 09:38 | 32.13799 | -107.93490 | 37045 ft | 554 kts | 109° |
| 2026-04-27 09:39 | 32.12125 | -107.84591 | 37043 ft | 554 kts | 109° |
| 2026-04-27 09:39 | 32.10462 | -107.75768 | 37028 ft | 551 kts | 109° |
| 2026-04-27 09:40 | 32.08782 | -107.66927 | 37031 ft | 554 kts | 109° |
| 2026-04-27 09:40 | 32.07091 | -107.58060 | 37009 ft | 555 kts | 109° |
| 2026-04-27 09:41 | 32.05404 | -107.49231 | 37026 ft | 552 kts | 109° |
| 2026-04-27 09:41 | 32.03720 | -107.40438 | 37020 ft | 552 kts | 109° |
| 2026-04-27 09:42 | 32.02013 | -107.31580 | 37027 ft | 551 kts | 109° |
| 2026-04-27 09:42 | 32.00315 | -107.22816 | 37034 ft | 551 kts | 110° |
| 2026-04-27 09:43 | 31.98606 | -107.14028 | 37030 ft | 552 kts | 109° |
| 2026-04-27 09:43 | 31.96888 | -107.05219 | 37017 ft | 550 kts | 109° |
| 2026-04-27 09:44 | 31.95177 | -106.96471 | 37018 ft | 549 kts | 109° |
| 2026-04-27 09:44 | 31.93456 | -106.87727 | 37010 ft | 550 kts | 109° |
| 2026-04-27 09:45 | 31.91723 | -106.78940 | 37010 ft | 551 kts | 109° |
| 2026-04-27 09:45 | 31.89979 | -106.70123 | 37008 ft | 550 kts | 109° |
| 2026-04-27 09:46 | 31.88236 | -106.61358 | 37014 ft | 550 kts | 109° |
| 2026-04-27 09:46 | 31.86483 | -106.52590 | 37019 ft | 553 kts | 109° |
| 2026-04-27 09:47 | 31.84734 | -106.43861 | 37027 ft | 551 kts | 109° |
| 2026-04-27 09:47 | 31.82968 | -106.35068 | 37024 ft | 551 kts | 109° |
| 2026-04-27 09:48 | 31.81199 | -106.26337 | 37025 ft | 549 kts | 110° |
| 2026-04-27 09:48 | 31.79184 | -106.17677 | 37030 ft | 548 kts | 113° |
| 2026-04-27 09:49 | 31.77004 | -106.09123 | 37031 ft | 545 kts | 114° |
| 2026-04-27 09:49 | 31.74814 | -106.00600 | 37050 ft | 547 kts | 114° |
| 2026-04-27 09:50 | 31.72648 | -105.92100 | 37052 ft | 545 kts | 114° |
| 2026-04-27 09:50 | 31.70487 | -105.83527 | 37065 ft | 547 kts | 113° |
| 2026-04-27 09:51 | 31.68336 | -105.74959 | 37068 ft | 548 kts | 113° |
| 2026-04-27 09:51 | 31.66170 | -105.66329 | 37068 ft | 548 kts | 112° |
| 2026-04-27 09:52 | 31.64016 | -105.57764 | 37065 ft | 546 kts | 112° |
| 2026-04-27 09:52 | 31.61870 | -105.49258 | 37052 ft | 548 kts | 112° |
| 2026-04-27 09:53 | 31.59701 | -105.40722 | 37050 ft | 547 kts | 112° |
| 2026-04-27 09:53 | 31.57516 | -105.32143 | 37034 ft | 547 kts | 113° |
| 2026-04-27 09:54 | 31.55333 | -105.23594 | 37048 ft | 547 kts | 113° |
| 2026-04-27 09:54 | 31.53161 | -105.15106 | 37052 ft | 547 kts | 113° |
| 2026-04-27 09:55 | 31.50971 | -105.06577 | 37061 ft | 546 kts | 113° |
| 2026-04-27 09:55 | 31.47679 | -104.93799 | 37069 ft | 546 kts | 113° |
| 2026-04-27 09:56 | 31.45478 | -104.85302 | 37070 ft | 549 kts | 112° |
| 2026-04-27 09:56 | 31.43270 | -104.76801 | 37034 ft | 546 kts | 112° |
| 2026-04-27 09:57 | 31.41062 | -104.68314 | 37032 ft | 549 kts | 112° |
| 2026-04-27 09:57 | 31.38833 | -104.59779 | 37031 ft | 548 kts | 112° |
| 2026-04-27 09:58 | 31.36585 | -104.51186 | 37041 ft | 547 kts | 112° |
| 2026-04-27 09:58 | 31.34358 | -104.42703 | 37039 ft | 548 kts | 112° |
| 2026-04-27 09:59 | 31.32117 | -104.34203 | 37029 ft | 548 kts | 112° |
| 2026-04-27 09:59 | 31.29859 | -104.25664 | 37014 ft | 547 kts | 112° |
| 2026-04-27 10:00 | 31.27603 | -104.17158 | 37011 ft | 547 kts | 112° |
| 2026-04-27 10:00 | 31.25355 | -104.08706 | 36990 ft | 546 kts | 112° |
| 2026-04-27 10:01 | 31.23092 | -104.00221 | 36993 ft | 546 kts | 112° |
| 2026-04-27 10:01 | 31.20821 | -103.91727 | 36975 ft | 546 kts | 112° |
| 2026-04-27 10:02 | 31.18558 | -103.83297 | 36973 ft | 549 kts | 112° |
| 2026-04-27 10:02 | 31.16272 | -103.74801 | 36976 ft | 547 kts | 112° |
| 2026-04-27 10:03 | 31.13997 | -103.66363 | 36963 ft | 547 kts | 112° |
| 2026-04-27 10:03 | 31.11704 | -103.57890 | 36960 ft | 547 kts | 112° |
| 2026-04-27 10:04 | 31.09418 | -103.49464 | 36958 ft | 546 kts | 112° |
| 2026-04-27 10:04 | 31.07129 | -103.41057 | 36972 ft | 548 kts | 112° |
| 2026-04-27 10:05 | 31.04825 | -103.32604 | 36965 ft | 544 kts | 113° |
| 2026-04-27 10:05 | 31.02516 | -103.24169 | 36966 ft | 546 kts | 112° |
| 2026-04-27 10:06 | 31.00201 | -103.15739 | 36975 ft | 547 kts | 113° |
| 2026-04-27 10:06 | 30.97898 | -103.07375 | 36963 ft | 545 kts | 112° |
| 2026-04-27 10:07 | 30.95575 | -102.98954 | 36938 ft | 545 kts | 113° |
| 2026-04-27 10:07 | 30.93336 | -102.90561 | 36916 ft | 546 kts | 111° |
| 2026-04-27 10:08 | 30.91229 | -102.82053 | 36915 ft | 548 kts | 110° |
| 2026-04-27 10:08 | 30.89136 | -102.73464 | 36944 ft | 548 kts | 110° |
| 2026-04-27 10:09 | 30.87042 | -102.64955 | 36957 ft | 549 kts | 110° |
| 2026-04-27 10:09 | 30.84925 | -102.56464 | 36954 ft | 546 kts | 110° |
| 2026-04-27 10:10 | 30.82788 | -102.47975 | 36971 ft | 548 kts | 110° |
| 2026-04-27 10:10 | 30.80642 | -102.39497 | 36961 ft | 547 kts | 110° |
| 2026-04-27 10:11 | 30.78496 | -102.31044 | 36967 ft | 546 kts | 111° |
| 2026-04-27 10:11 | 30.76351 | -102.22626 | 36964 ft | 547 kts | 110° |
| 2026-04-27 10:12 | 30.74196 | -102.14175 | 36948 ft | 546 kts | 111° |
| 2026-04-27 10:12 | 30.72038 | -102.05724 | 36939 ft | 546 kts | 111° |
| 2026-04-27 10:13 | 30.69874 | -101.97294 | 36927 ft | 548 kts | 111° |
| 2026-04-27 10:13 | 30.67699 | -101.88844 | 36934 ft | 545 kts | 111° |
| 2026-04-27 10:14 | 30.65527 | -101.80433 | 36926 ft | 545 kts | 110° |
| 2026-04-27 10:14 | 30.63353 | -101.72051 | 36930 ft | 545 kts | 110° |
| 2026-04-27 10:15 | 30.61172 | -101.63648 | 36923 ft | 544 kts | 110° |
| 2026-04-27 10:15 | 30.58985 | -101.55252 | 36922 ft | 543 kts | 110° |
| 2026-04-27 10:16 | 30.56794 | -101.46863 | 36916 ft | 544 kts | 110° |
| 2026-04-27 10:16 | 30.54596 | -101.38470 | 36913 ft | 544 kts | 110° |
| 2026-04-27 10:17 | 30.52396 | -101.30108 | 36913 ft | 543 kts | 111° |
| 2026-04-27 10:17 | 30.50182 | -101.21709 | 36915 ft | 542 kts | 111° |
| 2026-04-27 10:18 | 30.47990 | -101.13408 | 36907 ft | 541 kts | 111° |
| 2026-04-27 10:18 | 30.45773 | -101.05046 | 36907 ft | 541 kts | 111° |
| 2026-04-27 10:19 | 30.43564 | -100.96738 | 36899 ft | 541 kts | 111° |
| 2026-04-27 10:19 | 30.41354 | -100.88449 | 36898 ft | 540 kts | 111° |
| 2026-04-27 10:20 | 30.39133 | -100.80139 | 36899 ft | 541 kts | 110° |
| 2026-04-27 10:20 | 30.36901 | -100.71808 | 36896 ft | 540 kts | 110° |
| 2026-04-27 10:21 | 30.34664 | -100.63483 | 36905 ft | 541 kts | 110° |
| 2026-04-27 10:21 | 30.32426 | -100.55183 | 36907 ft | 541 kts | 110° |
| 2026-04-27 10:22 | 30.30190 | -100.46916 | 36906 ft | 541 kts | 110° |
| 2026-04-27 10:22 | 30.27948 | -100.38640 | 36876 ft | 537 kts | 110° |
| 2026-04-27 10:23 | 30.26832 | -100.34520 | 36532 ft | 530 kts | 111° |
| 2026-04-27 10:23 | 30.25736 | -100.30481 | 35955 ft | 528 kts | 111° |
| 2026-04-27 10:23 | 30.24629 | -100.26414 | 35229 ft | 528 kts | 111° |
| 2026-04-27 10:23 | 30.23530 | -100.22391 | 34378 ft | 531 kts | 111° |
| 2026-04-27 10:24 | 30.22405 | -100.18285 | 33473 ft | 535 kts | 111° |
| 2026-04-27 10:24 | 30.21284 | -100.14200 | 32583 ft | 539 kts | 111° |
| 2026-04-27 10:24 | 30.20150 | -100.10068 | 31645 ft | 543 kts | 111° |
| 2026-04-27 10:24 | 30.19013 | -100.05928 | 30656 ft | 547 kts | 110° |
| 2026-04-27 10:25 | 30.17852 | -100.01705 | 29605 ft | 548 kts | 110° |
| 2026-04-27 10:25 | 30.16694 | -99.97583 | 28523 ft | 542 kts | 111° |
| 2026-04-27 10:25 | 30.15474 | -99.93524 | 27413 ft | 537 kts | 112° |
| 2026-04-27 10:25 | 30.14193 | -99.89464 | 26301 ft | 530 kts | 113° |
| 2026-04-27 10:26 | 30.12929 | -99.85554 | 25562 ft | 515 kts | 113° |
| 2026-04-27 10:26 | 30.11697 | -99.81767 | 24852 ft | 502 kts | 113° |
| 2026-04-27 10:26 | 30.10484 | -99.78040 | 24102 ft | 490 kts | 113° |
| 2026-04-27 10:26 | 30.09303 | -99.74403 | 23346 ft | 478 kts | 113° |
| 2026-04-27 10:27 | 30.08166 | -99.70882 | 22609 ft | 467 kts | 113° |
| 2026-04-27 10:27 | 30.07051 | -99.67425 | 21886 ft | 461 kts | 113° |
| 2026-04-27 10:27 | 30.05924 | -99.63934 | 21146 ft | 466 kts | 113° |
| 2026-04-27 10:27 | 30.04790 | -99.60422 | 20388 ft | 468 kts | 113° |
| 2026-04-27 10:28 | 30.03663 | -99.56922 | 19621 ft | 466 kts | 113° |
| 2026-04-27 10:28 | 30.02559 | -99.53477 | 18860 ft | 459 kts | 113° |
| 2026-04-27 10:28 | 30.01465 | -99.50062 | 18107 ft | 448 kts | 113° |
| 2026-04-27 10:28 | 30.00399 | -99.46734 | 17360 ft | 438 kts | 112° |
| 2026-04-27 10:29 | 29.99358 | -99.43484 | 16626 ft | 428 kts | 112° |
| 2026-04-27 10:29 | 29.98335 | -99.40299 | 15913 ft | 426 kts | 112° |
| 2026-04-27 10:29 | 29.97310 | -99.37117 | 15202 ft | 424 kts | 112° |
| 2026-04-27 10:29 | 29.96292 | -99.33958 | 14503 ft | 414 kts | 113° |
| 2026-04-27 10:30 | 29.95303 | -99.30891 | 13820 ft | 403 kts | 112° |
| 2026-04-27 10:30 | 29.94337 | -99.27897 | 13143 ft | 402 kts | 112° |
| 2026-04-27 10:30 | 29.93362 | -99.24882 | 12452 ft | 402 kts | 112° |
| 2026-04-27 10:30 | 29.92398 | -99.21896 | 11762 ft | 392 kts | 112° |
| 2026-04-27 10:31 | 29.91441 | -99.19038 | 11161 ft | 383 kts | 114° |
| 2026-04-27 10:31 | 29.90425 | -99.16215 | 10762 ft | 374 kts | 115° |
| 2026-04-27 10:31 | 29.89431 | -99.13538 | 10597 ft | 351 kts | 115° |
| 2026-04-27 10:31 | 29.88494 | -99.11033 | 10462 ft | 330 kts | 116° |
| 2026-04-27 10:32 | 29.87594 | -99.08628 | 10323 ft | 330 kts | 116° |
| 2026-04-27 10:32 | 29.86689 | -99.06206 | 10168 ft | 325 kts | 115° |
| 2026-04-27 10:32 | 29.85825 | -99.03871 | 9987 ft | 309 kts | 115° |
| 2026-04-27 10:32 | 29.85009 | -99.01654 | 9619 ft | 302 kts | 115° |
| 2026-04-27 10:33 | 29.84196 | -98.99447 | 9220 ft | 296 kts | 115° |
| 2026-04-27 10:33 | 29.83391 | -98.97269 | 8855 ft | 289 kts | 116° |
| 2026-04-27 10:33 | 29.82574 | -98.95200 | 8503 ft | 283 kts | 118° |
| 2026-04-27 10:33 | 29.81719 | -98.93181 | 8156 ft | 276 kts | 118° |
| 2026-04-27 10:34 | 29.80880 | -98.91234 | 7814 ft | 268 kts | 118° |
| 2026-04-27 10:34 | 29.80069 | -98.89332 | 7482 ft | 262 kts | 118° |
| 2026-04-27 10:34 | 29.79289 | -98.87484 | 7197 ft | 254 kts | 118° |
| 2026-04-27 10:34 | 29.78543 | -98.85699 | 7086 ft | 239 kts | 118° |
| 2026-04-27 10:35 | 29.77848 | -98.84035 | 7020 ft | 222 kts | 118° |
| 2026-04-27 10:35 | 29.77203 | -98.82494 | 6957 ft | 209 kts | 118° |
| 2026-04-27 10:35 | 29.76503 | -98.81042 | 6842 ft | 207 kts | 127° |
| 2026-04-27 10:35 | 29.75669 | -98.79721 | 6593 ft | 204 kts | 131° |
| 2026-04-27 10:36 | 29.74801 | -98.78415 | 6238 ft | 206 kts | 130° |
| 2026-04-27 10:36 | 29.73944 | -98.77089 | 5941 ft | 205 kts | 130° |
| 2026-04-27 10:36 | 29.73117 | -98.75786 | 5701 ft | 201 kts | 130° |
| 2026-04-27 10:36 | 29.72304 | -98.74499 | 5476 ft | 194 kts | 130° |
| 2026-04-27 10:37 | 29.71516 | -98.73254 | 5255 ft | 188 kts | 130° |
| 2026-04-27 10:37 | 29.70758 | -98.72061 | 5054 ft | 183 kts | 130° |
| 2026-04-27 10:37 | 29.70014 | -98.70894 | 4864 ft | 180 kts | 131° |
| 2026-04-27 10:37 | 29.69279 | -98.69737 | 4664 ft | 174 kts | 131° |
| 2026-04-27 10:38 | 29.68585 | -98.68637 | 4466 ft | 168 kts | 131° |
| 2026-04-27 10:38 | 29.67907 | -98.67561 | 4283 ft | 166 kts | 131° |
| 2026-04-27 10:38 | 29.67229 | -98.66491 | 4104 ft | 165 kts | 132° |
| 2026-04-27 10:38 | 29.66551 | -98.65424 | 3938 ft | 159 kts | 132° |
| 2026-04-27 10:39 | 29.65920 | -98.64427 | 3804 ft | 151 kts | 133° |
| 2026-04-27 10:39 | 29.65299 | -98.63479 | 3703 ft | 149 kts | 134° |
| 2026-04-27 10:39 | 29.64679 | -98.62511 | 3593 ft | 150 kts | 132° |
| 2026-04-27 10:39 | 29.64070 | -98.61528 | 3453 ft | 148 kts | 133° |
| 2026-04-27 10:40 | 29.63455 | -98.60576 | 3379 ft | 154 kts | 133° |
| 2026-04-27 10:40 | 29.62834 | -98.59601 | 3197 ft | 146 kts | 133° |
| 2026-04-27 10:40 | 29.62196 | -98.58691 | 3006 ft | 148 kts | 139° |
| 2026-04-27 10:40 | 29.61499 | -98.57846 | 2791 ft | 145 kts | 140° |
| 2026-04-27 10:41 | 29.60815 | -98.56979 | 2593 ft | 146 kts | 138° |
| 2026-04-27 10:41 | 29.60144 | -98.56096 | 2398 ft | 147 kts | 137° |
| 2026-04-27 10:41 | 29.59466 | -98.55218 | 2201 ft | 147 kts | 137° |
| 2026-04-27 10:41 | 29.58774 | -98.54366 | 1967 ft | 146 kts | 138° |
| 2026-04-27 10:42 | 29.58105 | -98.53503 | 1777 ft | 144 kts | 136° |
| 2026-04-27 10:42 | 29.57460 | -98.52635 | 1614 ft | 142 kts | 135° |
| 2026-04-27 10:42 | 29.56805 | -98.51794 | 1463 ft | 139 kts | 136° |
| 2026-04-27 10:42 | 29.56164 | -98.50966 | 1323 ft | 137 kts | 135° |
| 2026-04-27 10:43 | 29.55514 | -98.50146 | 1169 ft | 140 kts | 135° |
| 2026-04-27 10:43 | 29.54865 | -98.49309 | 1016 ft | 142 kts | 134° |
| 2026-04-27 10:43 | 29.54200 | -98.48454 | 877 ft | 142 kts | 133° |
| 2026-04-27 10:43 | 29.53557 | -98.47626 | 808 ft | 133 kts | 133° |
| 2026-04-27 10:44 | 29.52988 | -98.46906 | 785 ft | 95 kts | 131° |
| 2026-04-27 10:44 | 29.52805 | -98.46663 | 783 ft | 14 kts | 130° |
| 2026-04-27 10:44 | 29.52744 | -98.46605 | 782 ft | 13 kts | 174° |
| 2026-04-27 10:44 | 29.52675 | -98.46683 | 784 ft | 14 kts | 281° |
| 2026-04-27 10:45 | 29.52728 | -98.46767 | 785 ft | 12 kts | 326° |
| 2026-04-27 10:45 | 29.52785 | -98.46827 | 787 ft | 10 kts | 313° |
| 2026-04-27 10:45 | 29.52831 | -98.46883 | 787 ft | 9 kts | 312° |
| 2026-04-27 10:45 | 29.52879 | -98.46948 | 787 ft | 11 kts | 310° |
| 2026-04-27 10:46 | 29.52928 | -98.47012 | 787 ft | 9 kts | 310° |
| 2026-04-27 10:46 | 29.52972 | -98.47067 | 788 ft | 11 kts | 312° |
| 2026-04-27 10:46 | 29.53031 | -98.47146 | 790 ft | 10 kts | 295° |
| 2026-04-27 10:46 | 29.53000 | -98.47194 | 790 ft | 7 kts | 180° |
| 2026-04-27 10:47 | 29.52959 | -98.47147 | 790 ft | 9 kts | 136° |
| 2026-04-27 10:47 | 29.52906 | -98.47086 | 788 ft | 11 kts | 130° |
| 2026-04-27 10:47 | 29.52834 | -98.47074 | 788 ft | 12 kts | 212° |
| 2026-04-27 10:47 | 29.52823 | -98.47119 | 789 ft | 2 kts | 288° |
| 2026-04-27 10:48 | 29.52833 | -98.47142 | 789 ft | 2 kts | 305° |
| 2026-04-27 10:48 | 29.52833 | -98.47143 | 789 ft | 0 kts | 305° |
| 2026-04-27 10:48 | 29.52838 | -98.47147 | 789 ft | 0 kts | 315° |
| 2026-04-27 10:48 | 29.52843 | -98.47154 | 790 ft | 0 kts | 313° |